Flight Track Log - Related Links

Times and Time Zones

All times are in EDT time to prevent confusion due to time zone crossing. See the UPS2038 flight status page for this flight to view local times or setup timezone preferences in your user account.

Time Position Orientation Groundspeed Altitude Reporting Facility
EDT Latitude Longitude Course Direction KTS MPH feet Rate Location/Type
Thu 05:07:42 PM 32.9000 -97.0167 73° East 166 191 1,100  Level Dallas / Fort Worth TRACON
Thu 05:08:17 PM 32.8638 -97.0247 177° South 187 215 2,800 2,625 Climbing FlightAware ADS-B
Thu 05:08:30 PM 32.8532 -97.0237 167° South 215 247 3,200 1,286 Climbing FlightAware ADS-B (LKPR / PRG)
Thu 05:08:45 PM 32.8437 -97.0207 160° South 230 265 3,400 2,750 Climbing FlightAware ADS-B
Thu 05:09:18 PM 32.8028 -97.0038 161° South 255 293 5,400 3,628 Climbing FlightAware ADS-B
Thu 05:09:28 PM 32.7951 -97.0006 146° Southeast 278 320 6,000 2,286 Climbing FlightAware ADS-B (LKPR / PRG)
Thu 05:09:39 PM 32.7796 -96.9874 134° Southeast 283 326 6,200 2,526 Climbing FlightAware ADS-B
Thu 05:09:47 PM 32.7751 -96.9780 115° Southeast 281 323 6,800 4,500 Climbing FlightAware ADS-B
Thu 05:10:07 PM 32.7651 -96.9482 108° East 282 325 8,300 3,636 Climbing FlightAware ADS-B
Thu 05:10:20 PM 32.7625 -96.9299 92° East 294 338 8,800 1,455 Climbing FlightAware ADS-B
Thu 05:10:40 PM 32.7632 -96.9068 85° East 304 350 9,100 1,043 Climbing FlightAware ADS-B
Thu 05:11:29 PM 32.7738 -96.8168 65° Northeast 305 351 10,000 5,029 Climbing FlightAware ADS-B
Thu 05:11:48 PM 32.7702 -96.8272 64° Northeast 368 423 14,800 2,269 Climbing FlightAware ADS-B (LKPR / PRG)
Thu 05:13:00 PM 32.7576 -96.9029 73° East  Level FlightAware Approximate
Thu 05:13:28 PM 32.7745 -96.8152 64° Northeast 405 466 14,500  Level FlightAware ADS-B
Thu 05:15:24 PM 32.9277 -96.4376 73° East 449 517 20,500 2,928 Climbing FlightAware ADS-B (LKPR / PRG)
Thu 05:16:14 PM 32.9760 -96.2839 81° East 460 529 22,600 1,855 Climbing FlightAware ADS-B (LKPR / PRG)
Thu 05:19:28 PM 33.0563 -95.7008 North 28,000 1,707 Climbing FlightAware ADS-B
Thu 05:19:59 PM 33.0675 -95.6193 79° East 516 594 29,000 1,355 Climbing FlightAware ADS-B
Thu 05:24:38 PM 33.2793 -94.8781 70° East 522 601 35,000 1,165 Climbing FlightAware ADS-B
Thu 05:25:08 PM 33.3068 -94.7840 70° East 520 598 35,000  Level FlightAware ADS-B
Thu 05:25:38 PM 33.3176 -94.7466 70° East 518 596 35,000  Level FlightAware ADS-B
Thu 05:26:09 PM 33.3529 -94.6260 70° East 514 592 35,000  Level FlightAware ADS-B
Thu 05:26:38 PM 33.3686 -94.5727 70° East 512 589 35,000  Level FlightAware ADS-B
Thu 05:27:39 PM 33.4214 -94.3919 70° East 512 589 35,000  Level Memphis Center
Thu 05:28:41 PM 33.4675 -94.2328 71° East 508 585 35,000  Level Memphis Center
Thu 05:29:43 PM 33.5083 -94.0683 73° East 508 585 35,000  Level Memphis Center
Thu 05:30:45 PM 33.5236 -93.8919 84° East 518 596 35,000  Level Memphis Center
Thu 05:31:47 PM 33.5314 -93.7097 87° East 519 597 35,000  Level Memphis Center
Thu 05:32:49 PM 33.5394 -93.5414 87° East 520 598 35,000  Level Memphis Center
Thu 05:33:51 PM 33.5472 -93.3683 87° East 520 598 35,000  Level Memphis Center
Thu 05:34:53 PM 33.5550 -93.1950 87° East 520 598 35,000  Level Memphis Center
Thu 05:35:55 PM 33.5639 -92.9875 87° East 520 598 35,000  Level Memphis Center
Thu 05:36:57 PM 33.5708 -92.8153 87° East 519 597 35,000  Level Memphis Center
Thu 05:37:59 PM 33.5778 -92.6442 87° East 518 596 35,000  Level Memphis Center
Thu 05:39:01 PM 33.5847 -92.4731 87° East 517 595 35,000  Level Memphis Center
Thu 05:40:04 PM 33.5911 -92.2953 87° East 517 595 35,000  Level Memphis Center
Thu 05:41:06 PM 33.5967 -92.1300 88° East 516 594 35,000  Level Memphis Center
Thu 05:42:08 PM 33.6039 -91.9256 88° East 514 592 35,000  Level Memphis Center
Thu 05:43:10 PM 33.6094 -91.7558 88° East 513 590 35,000  Level Memphis Center
Thu 05:44:12 PM 33.6153 -91.5744 88° East 513 590 35,000  Level Memphis Center
Thu 05:45:14 PM 33.6203 -91.4047 88° East 513 590 35,000  Level Memphis Center
Thu 05:46:16 PM 33.6250 -91.2344 88° East 513 590 35,000 -97 Level Memphis Center
Thu 05:47:18 PM 33.6297 -91.0647 88° East 513 590 34,800 -532 Descending Memphis Center
Thu 05:48:20 PM 33.6344 -90.8942 88° East 514 592 33,900 -871 Descending Memphis Center
Thu 05:49:22 PM 33.6394 -90.6900 88° East 513 590 33,000 -435 Descending Memphis Center
Thu 05:50:24 PM 33.6433 -90.5189 88° East 514 592 33,000  Level Memphis Center
Thu 05:51:26 PM 33.6467 -90.3472 89° East 515 593 33,000  Level Memphis Center
Thu 05:52:29 PM 33.6503 -90.1747 89° East 516 594 33,000  Level Memphis Center
Thu 05:53:31 PM 33.6536 -90.0017 89° East 518 596 33,000  Level Memphis Center
Thu 05:54:33 PM 33.6567 -89.8286 89° East 518 596 33,000  Level Memphis Center
Thu 05:55:35 PM 33.6597 -89.6206 89° East 519 597 33,000  Level Memphis Center
Thu 05:56:37 PM 33.6622 -89.4472 89° East 520 598 33,000  Level Memphis Center
Thu 05:57:39 PM 33.6644 -89.2733 89° East 521 600 33,000  Level Memphis Center
Thu 05:58:41 PM 33.6664 -89.0994 89° East 522 601 33,000  Level Memphis Center
Thu 05:59:43 PM 33.6681 -88.9258 89° East 522 601 33,000  Level Memphis Center
Thu 06:00:45 PM 33.6697 -88.7450 89° East 523 602 33,000  Level Memphis Center
Thu 06:01:47 PM 33.6708 -88.5364 90° East 523 602 33,000  Level Memphis Center
Thu 06:02:49 PM 33.6717 -88.3636 90° East 523 602 33,000  Level Memphis Center
Thu 06:03:51 PM 33.6728 -88.1908 90° East 522 601 33,000 -291 Level Memphis Center
Thu 06:09:42 PM 33.6717 -87.1445 90° East 532 612 31,000 -313 Descending FlightAware ADS-B (KMDQ)
Thu 06:10:14 PM 33.6712 -87.0505 90° East 531 611 31,000  Level FlightAware ADS-B (KMDQ)
Thu 06:11:13 PM 33.6701 -86.8850 91° East 531 611 31,000  Level FlightAware ADS-B (KMDQ)
Thu 06:12:22 PM 33.6685 -86.6743 91° East 531 611 31,000  Level FlightAware ADS-B (KMDQ)
Thu 06:12:58 PM 33.6676 -86.5714 91° East 531 611 31,000  Level FlightAware ADS-B (KMDQ)
Thu 06:13:42 PM 33.6664 -86.4518 91° East 530 610 31,000  Level FlightAware ADS-B (KMDQ)
Thu 06:15:27 PM 33.6624 -86.1308 91° East 530 610 31,000  Level FlightAware ADS-B (KMDQ)
Thu 06:16:34 PM 33.6586 -85.9381 91° East 531 611 31,000  Level Atlanta Center
Thu 06:17:34 PM 33.6608 -85.7858 89° East 525 604 31,000  Level Atlanta Center
Thu 06:18:34 PM 33.6592 -85.6086 91° East 518 596 31,000  Level Atlanta Center
Thu 06:19:34 PM 33.6550 -85.4314 92° East 523 602 31,000  Level Atlanta Center
Thu 06:20:34 PM 33.6506 -85.2567 92° East 523 602 31,000  Level Atlanta Center
Thu 06:21:34 PM 33.6458 -85.0794 92° East 523 602 31,000  Level Atlanta Center
Thu 06:22:34 PM 33.6408 -84.9047 92° East 523 602 31,000  Level Atlanta Center
Thu 06:23:34 PM 33.6378 -84.7400 91° East 523 602 31,000  Level Atlanta Center
Thu 06:24:34 PM 33.6325 -84.5353 92° East 523 602 31,000  Level Atlanta Center
Thu 06:25:34 PM 33.6311 -84.3606 90° East 523 602 31,000  Level Atlanta Center
Thu 06:26:34 PM 33.6606 -84.2236 75° East 528 608 31,000  Level Atlanta Center
Thu 06:27:34 PM 33.7253 -84.0464 66° East 522 601 31,000  Level Atlanta Center
Thu 06:28:34 PM 33.8047 -83.9039 56° Northeast 512 589 31,000  Level Atlanta Center
Thu 06:29:34 PM 33.8919 -83.7711 52° Northeast 507 583 31,000  Level Atlanta Center
Thu 06:30:34 PM 33.9794 -83.6331 53° Northeast 514 592 31,000  Level Atlanta Center
Thu 06:31:34 PM 34.0728 -83.4847 53° Northeast 509 586 31,000  Level Atlanta Center
Thu 06:32:34 PM 34.1597 -83.3483 52° Northeast 509 586 31,000  Level Atlanta Center
Thu 06:33:34 PM 34.2422 -83.2147 53° Northeast 509 586 31,000  Level Atlanta Center
Thu 06:34:34 PM 34.3289 -83.0753 53° Northeast 509 586 31,000  Level Atlanta Center
Thu 06:35:34 PM 34.4092 -82.9411 54° Northeast 509 586 31,000  Level Atlanta Center
Thu 06:36:34 PM 34.4978 -82.8039 52° Northeast 509 586 31,000  Level Atlanta Center
Thu 06:37:34 PM 34.5775 -82.6639 55° Northeast 503 579 31,000  Level Atlanta Center
Thu 06:38:34 PM 34.6658 -82.5336 50° Northeast 503 579 31,000  Level Atlanta Center
Thu 06:39:34 PM 34.7475 -82.3956 54° Northeast 503 579 31,000  Level Atlanta Center
Thu 06:40:34 PM 34.8331 -82.2572 53° Northeast 510 587 31,000  Level Atlanta Center
Thu 06:41:34 PM 34.9003 -82.1444 54° Northeast 510 587 31,000  Level Atlanta Center
Thu 06:42:34 PM 34.9939 -81.9928 53° Northeast 510 587 31,000  Level Atlanta Center
Thu 06:43:34 PM 35.0769 -81.8511 54° Northeast 510 587 31,000  Level Atlanta Center
Thu 06:44:34 PM 35.1536 -81.7042 57° Northeast 510 587 31,000  Level Atlanta Center
Thu 06:45:34 PM 35.2400 -81.5364 58° Northeast 520 598 31,000  Level Atlanta Center
Thu 06:46:34 PM 35.3183 -81.3892 57° Northeast 520 598 31,000  Level Atlanta Center
Thu 06:47:34 PM 35.3942 -81.2389 58° Northeast 520 598 31,000  Level Atlanta Center
Thu 06:48:34 PM 35.4742 -81.0883 57° Northeast 520 598 31,000  Level Atlanta Center
Thu 06:49:34 PM 35.5519 -80.9375 58° Northeast 520 598 31,000  Level Atlanta Center
Thu 06:50:34 PM 35.6314 -80.7861 57° Northeast 520 598 31,000  Level Atlanta Center
Thu 06:51:34 PM 35.7067 -80.6375 58° Northeast 520 598 31,000  Level Atlanta Center
Thu 06:52:34 PM 35.7858 -80.4856 57° Northeast 520 598 31,000  Level Atlanta Center
Thu 06:53:34 PM 35.8606 -80.3364 58° Northeast 520 598 31,000  Level Atlanta Center
Thu 06:55:45 PM 36.0197 -80.0244 58° Northeast 517 595 31,000  Level Washington Center
Thu 06:56:46 PM 36.1000 -79.8800 55° Northeast 510 587 31,000  Level Washington Center
Thu 06:57:45 PM 36.1914 -79.7203 55° Northeast 505 581 31,000  Level Washington Center
Thu 06:58:46 PM 36.2714 -79.5725 56° Northeast 520 598 31,000  Level Washington Center
Thu 06:59:44 PM 36.3486 -79.4447 53° Northeast 515 593 31,000  Level Washington Center
Thu 07:00:44 PM 36.4372 -79.2814 56° Northeast 515 593 31,000  Level Washington Center
Thu 07:01:46 PM 36.5167 -79.1353 56° Northeast 515 593 31,000  Level Washington Center
Thu 07:02:44 PM 36.6003 -78.9942 54° Northeast 515 593 31,000  Level Washington Center
Thu 07:03:45 PM 36.6794 -78.8447 57° Northeast 515 593 31,000  Level Washington Center
Thu 07:04:45 PM 36.7539 -78.7106 55° Northeast 520 598 31,000  Level Washington Center
Thu 07:05:46 PM 36.8019 -78.5439 70° East 503 579 31,000  Level Washington Center
Thu 07:06:44 PM 36.8233 -78.3500 82° East 503 579 31,000  Level Washington Center
Thu 07:07:45 PM 36.8522 -78.1694 79° East 509 586 31,000  Level Washington Center
Thu 07:08:45 PM 36.9428 -78.0372 49° Northeast 479 551 31,000  Level Washington Center
Thu 07:09:44 PM 37.0592 -77.9525 30° Northeast 465 535 31,000  Level Washington Center
Thu 07:10:45 PM 37.1756 -77.8700 29° Northeast 465 535 31,000  Level Washington Center
Thu 07:11:46 PM 37.2997 -77.8086 21° North 472 543 31,000  Level Washington Center
Thu 07:12:46 PM 37.4236 -77.7625 16° North 461 531 31,000  Level Washington Center
Thu 07:13:46 PM 37.5400 -77.6739 31° Northeast 461 531 31,000  Level Washington Center
Thu 07:14:45 PM 37.6561 -77.5853 31° Northeast 474 545 31,000  Level Washington Center
Thu 07:21:11 PM 38.3900 -77.0000 33° Northeast 490 564 31,000  Level FlightAware ADS-B
Thu 07:22:20 PM 38.5063 -76.9060 32° Northeast 491 565 31,000  Level FlightAware ADS-B
Thu 07:23:19 PM 38.6437 -76.7952 33° Northeast 495 570 31,000  Level FlightAware ADS-B
Thu 07:24:22 PM 38.7610 -76.6795 43° Northeast 510 587 31,000 -350 Level FlightAware ADS-B
Thu 07:27:19 PM 39.0730 -76.3206 42° Northeast 512 589 29,600 -514 Descending FlightAware ADS-B (LFML / MRS)
Thu 07:27:52 PM 39.1302 -76.2535 43° Northeast 502 578 29,200 -1,397 Descending FlightAware ADS-B (LFML / MRS)
Thu 07:28:32 PM 39.1779 -76.1977 42° Northeast 503 579 27,900 -1,889 Descending FlightAware ADS-B (LFML / MRS)
Thu 07:28:46 PM 39.2228 -76.1449 43° Northeast 485 558 27,500 -1,556 Descending FlightAware ADS-B (KWWD)
Thu 07:29:26 PM 39.2894 -76.0671 43° Northeast 481 554 26,500 -1,200 Descending FlightAware ADS-B (KWWD)
Thu 07:30:16 PM 39.3733 -75.9684 43° Northeast 486 559 25,700 -918 Descending FlightAware ADS-B (KWWD)
Thu 07:30:51 PM 39.4272 -75.9045 43° Northeast 480 552 25,200 -553 Descending FlightAware ADS-B (LFML / MRS)
Thu 07:31:32 PM 39.4964 -75.8224 43° Northeast 475 547 25,000 -632 Descending FlightAware ADS-B (LFML / MRS)
Thu 07:32:07 PM 39.5541 -75.7541 42° Northeast 476 548 24,400 -1,437 Descending FlightAware ADS-B (KWWD)
Thu 07:32:43 PM 39.6117 -75.6860 43° Northeast 466 536 23,300 -2,029 Descending FlightAware ADS-B (KWWD)
Thu 07:33:15 PM 39.6634 -75.6243 43° Northeast 464 534 22,100 -2,522 Descending FlightAware ADS-B (KWWD)
Thu 07:33:52 PM 39.7213 -75.5549 44° Northeast 449 517 20,400 -2,783 Descending FlightAware ADS-B (KWWD)
Thu 07:34:24 PM 39.7698 -75.4962 43° Northeast 444 511 18,900 -2,687 Descending FlightAware ADS-B (KWWD)
Thu 07:34:59 PM 39.8213 -75.4339 44° Northeast 427 491 17,400 -2,704 Descending FlightAware ADS-B (KWWD)
Thu 07:35:35 PM 39.8731 -75.3708 43° Northeast 417 480 15,700 -2,351 Descending FlightAware ADS-B (KWWD)
Thu 07:36:36 PM 39.9558 -75.2706 44° Northeast 379 436 13,600 -1,959 Descending FlightAware ADS-B (KWWD)
Thu 07:37:13 PM 40.0019 -75.2145 44° Northeast 338 389 12,500 -1,346 Descending FlightAware ADS-B (KWWD)
Thu 07:38:23 PM 39.7720 -75.4936 43° Northeast 319 367 11,200 -1,172 Descending FlightAware ADS-B (KPHL)
Thu 07:40:02 PM 39.7720 -75.4936 43° Northeast 311 358 9,200 -872 Descending FlightAware ADS-B (KPHL)
Thu 07:44:07 PM 40.4220 -74.6733 36° Northeast 282 325 6,200 -693 Descending FlightAware ADS-B (KWWD)
Thu 07:44:39 PM 40.4500 -74.6667 36° Northeast 283 326 6,000 -129 Descending New York TRACON
Thu 07:45:40 PM 40.5333 -74.6333 17° North 267 307 6,000  Level New York TRACON
Thu 07:46:40 PM 40.6000 -74.6167 11° North 261 300 6,000  Level New York TRACON
Thu 07:47:40 PM 40.6667 -74.6000 11° North 269 310 6,000  Level New York TRACON
Thu 07:48:39 PM 40.7333 -74.5500 30° Northeast 277 319 6,000 -100 Level New York TRACON
Thu 07:49:40 PM 40.8000 -74.5000 30° Northeast 276 318 5,800 -522 Descending New York TRACON
Thu 07:50:34 PM 40.8667 -74.4500 30° Northeast 276 318 5,000 -403 Descending New York TRACON
Thu 07:51:39 PM 40.9333 -74.3833 37° Northeast 278 320 5,000  Level New York TRACON
Thu 07:52:39 PM 40.9667 -74.2833 66° East 283 326 5,000 -397 Level New York TRACON
Thu 07:53:40 PM 40.9667 -74.2000 90° East 259 298 4,200 -496 Descending New York TRACON
Thu 07:54:40 PM 40.9333 -74.1167 118° Southeast 245 282 4,000 -550 Descending New York TRACON
Thu 07:55:40 PM 40.8833 -74.0667 143° Southeast 223 257 3,100 -500 Descending New York TRACON
Thu 07:56:40 PM 40.8333 -74.0667 180° South 166 191 3,000 -450 Descending New York TRACON
Thu 07:57:40 PM 40.8000 -74.1000 217° Southwest 155 178 2,200 -800 Descending New York TRACON
Thu 07:58:40 PM 40.7667 -74.1167 201° Southwest 141 162 1,400 -750 Descending New York TRACON
Thu 07:59:40 PM 40.7333 -74.1333 201° Southwest 123 142 700 -700 Descending New York TRACON
Thu 08:01:00 PM 40.6833 -74.1667 191° South  Level FlightAware Approximate
Thu 08:08:00 PM 40.6925 -74.1687 191° South  Level Estimated

Login

Don't have an account? Register now (free) for customized features, flight alerts, and more!